Auxier, Kentucky
Current Conditions -  °F | °C
As of 12:15 PM on Saturday 25 Oct 2014 (Local Time) from KSJS Reporting Station
Scattered Clouds Scattered Clouds  
Wind Chill: 60°   Ceiling: Unl
Heat Index: 60°   Visibility: 10mi
Dew Point: 47°   Wind: 7mph
Humidity: 61%   Direction: 220°SW
Pressure: 30.05"   Gusts: NA
Location:  37.74°N, 82.76°W
Report Text: KSJS 251615Z AUTO 22006KT 10SM SCT075 SCT080 16/08 A3005 RMK AO2 T01550081
Loading
Personal Weather Stations






























Interactive Weather Map
Tropical Storm Tracking
New forecast layout! Learn more

10-Day Weather Forecast

Advertisements
Track Severe Weather on mobile